createdAt,value
2022-12-27T00:03:35.722Z,3.53
2022-12-27T00:08:38.487Z,2.07
2022-12-27T00:13:41.211Z,2.10
2022-12-27T00:18:44.213Z,1.97
2022-12-27T00:23:49.547Z,2.47
2022-12-27T00:28:52.986Z,2.33
2022-12-27T00:34:00.186Z,2.23
2022-12-27T00:39:03.084Z,2.50
2022-12-27T00:44:05.808Z,8.23
2022-12-27T00:49:08.436Z,1.53
2022-12-27T00:54:10.919Z,1.90
2022-12-27T00:59:13.501Z,2.43
2022-12-27T01:04:16.161Z,2.10
2022-12-27T01:09:18.651Z,1.53
2022-12-27T01:14:21.354Z,1.40
2022-12-27T01:19:23.958Z,1.30
2022-12-27T01:24:26.383Z,1.73
2022-12-27T01:29:32.414Z,1.70
2022-12-27T01:34:35.865Z,2.07
2022-12-27T01:39:38.424Z,1.47
2022-12-27T01:44:44.123Z,2.10
2022-12-27T01:49:54.078Z,3.10
2022-12-27T01:54:59.811Z,9.17
2022-12-27T02:00:02.595Z,2.00
2022-12-27T02:05:09.331Z,1.73
2022-12-27T02:10:12.345Z,3.20
2022-12-27T02:15:15.129Z,1.70
2022-12-27T02:20:25.471Z,3.27
2022-12-27T02:25:52.416Z,3.83
2022-12-27T02:31:04.858Z,8.00
2022-12-27T02:36:12.490Z,1.87
2022-12-27T02:41:34.210Z,8.03
2022-12-27T02:46:55.238Z,2.20
2022-12-27T02:52:31.261Z,2.00
2022-12-27T02:57:36.621Z,1.67
2022-12-27T03:03:00.326Z,2.07
2022-12-27T03:08:19.049Z,8.77
2022-12-27T03:13:43.025Z,27.73
2022-12-27T03:18:57.455Z,22.73
2022-12-27T03:24:20.409Z,8.03
2022-12-27T03:29:42.110Z,31.37
2022-12-27T03:34:59.622Z,20.13
2022-12-27T03:40:29.024Z,23.47
2022-12-27T03:46:03.401Z,6.77
2022-12-27T03:51:07.123Z,22.73
2022-12-27T03:56:11.032Z,30.63
2022-12-27T04:01:13.746Z,7.00
2022-12-27T04:06:16.455Z,14.13
2022-12-27T04:11:37.474Z,5.13
2022-12-27T04:16:58.508Z,2.20
2022-12-27T04:22:19.843Z,27.13
2022-12-27T04:27:40.914Z,20.13
2022-12-27T04:33:02.093Z,14.03
2022-12-27T04:38:04.587Z,9.73
2022-12-27T04:43:27.674Z,14.17
2022-12-27T04:48:49.848Z,7.57
2022-12-27T04:54:10.653Z,12.60
2022-12-27T04:59:31.595Z,9.33
2022-12-27T05:04:37.719Z,14.80
2022-12-27T05:09:58.751Z,11.23
2022-12-27T05:15:01.246Z,18.40
2022-12-27T05:20:04.079Z,1.93
2022-12-27T05:25:25.418Z,9.47
2022-12-27T05:30:28.030Z,18.43
2022-12-27T05:35:31.028Z,14.13
2022-12-27T05:40:34.279Z,15.03
2022-12-27T05:45:36.904Z,2.63
2022-12-27T05:50:39.428Z,5.53
2022-12-27T05:55:58.825Z,9.80
2022-12-27T06:01:01.815Z,11.10
2022-12-27T06:06:06.891Z,15.67
2022-12-27T06:11:12.769Z,7.67
2022-12-27T06:16:16.251Z,5.30
2022-12-27T06:21:21.276Z,9.40
2022-12-27T06:26:26.252Z,12.87
2022-12-27T06:31:28.916Z,16.80
2022-12-27T06:36:32.552Z,13.67
2022-12-27T06:41:34.995Z,4.57
2022-12-27T06:46:38.254Z,7.97
2022-12-27T06:51:40.798Z,5.23
2022-12-27T06:56:43.281Z,5.00
2022-12-27T07:01:45.850Z,3.70
2022-12-27T07:06:50.814Z,11.33
2022-12-27T07:11:54.543Z,7.57
2022-12-27T07:16:57.100Z,11.83
2022-12-27T07:21:59.665Z,10.60
2022-12-27T07:27:03.010Z,9.80
2022-12-27T07:32:05.690Z,10.70
2022-12-27T07:37:08.434Z,4.93
2022-12-27T07:42:11.212Z,3.13
2022-12-27T07:47:13.836Z,6.30
2022-12-27T07:52:16.421Z,5.90
2022-12-27T07:57:18.951Z,7.57
2022-12-27T08:02:21.560Z,7.27
2022-12-27T08:07:25.799Z,3.50
2022-12-27T08:12:28.413Z,2.50
2022-12-27T08:17:31.145Z,9.00
2022-12-27T08:22:33.680Z,8.23
2022-12-27T08:27:36.242Z,5.87
2022-12-27T08:32:38.725Z,1.97
2022-12-27T08:37:41.209Z,8.07
2022-12-27T08:42:43.789Z,7.47
2022-12-27T08:47:46.303Z,3.90
2022-12-27T08:52:48.859Z,8.03
2022-12-27T08:57:51.397Z,5.70
2022-12-27T09:02:54.547Z,4.03
2022-12-27T09:07:58.358Z,5.87
2022-12-27T09:13:00.890Z,4.17
2022-12-27T09:18:03.508Z,2.73
2022-12-27T09:23:06.001Z,8.13
2022-12-27T09:28:10.304Z,5.90
2022-12-27T09:33:12.849Z,7.20
2022-12-27T09:38:15.362Z,6.57
2022-12-27T09:43:27.208Z,4.13
2022-12-27T09:48:40.112Z,7.83
2022-12-27T09:53:49.607Z,5.57
2022-12-27T09:58:55.439Z,2.30
2022-12-27T10:03:58.979Z,5.87
2022-12-27T10:09:04.541Z,6.40
2022-12-27T10:14:20.308Z,6.57
2022-12-27T10:19:36.192Z,3.20
2022-12-27T10:24:49.017Z,5.50
2022-12-27T10:29:56.288Z,6.80
2022-12-27T10:35:02.806Z,5.50
2022-12-27T10:40:15.393Z,3.93
2022-12-27T10:45:39.643Z,5.10
2022-12-27T10:51:07.497Z,3.60
2022-12-27T10:56:24.943Z,7.00
2022-12-27T11:01:30.404Z,4.43
2022-12-27T11:06:32.875Z,3.47
2022-12-27T11:11:35.383Z,4.93
2022-12-27T11:16:41.336Z,5.50
2022-12-27T11:21:44.035Z,4.13
2022-12-27T11:26:59.248Z,5.87
2022-12-27T11:32:08.080Z,5.27
2022-12-27T11:37:17.816Z,3.13
2022-12-27T11:42:49.879Z,2.97
2022-12-27T11:47:58.415Z,2.63
2022-12-27T11:53:10.141Z,3.00
2022-12-27T11:58:37.575Z,2.53
2022-12-27T12:03:40.151Z,2.70
2022-12-27T12:08:45.678Z,2.57
2022-12-27T12:13:51.396Z,2.83
2022-12-27T12:19:24.788Z,2.80
2022-12-27T12:24:49.157Z,3.43
2022-12-27T12:30:13.036Z,1.90
2022-12-27T12:35:31.166Z,2.60
2022-12-27T12:41:06.218Z,3.00
2022-12-27T12:46:43.958Z,2.43
2022-12-27T12:51:58.939Z,2.47
2022-12-27T12:57:16.392Z,3.23
2022-12-27T13:03:07.786Z,2.87
2022-12-27T13:08:46.953Z,3.30
2022-12-27T13:14:26.507Z,4.27
2022-12-27T13:19:59.017Z,4.33
2022-12-27T13:25:04.411Z,3.63
2022-12-27T13:30:20.525Z,2.80
2022-12-27T13:35:39.774Z,2.83
2022-12-27T13:40:51.225Z,2.17
2022-12-27T13:46:42.649Z,3.27
2022-12-27T13:51:50.780Z,2.93
2022-12-27T13:57:23.342Z,2.63
2022-12-27T14:02:37.913Z,2.63
2022-12-27T14:08:01.552Z,3.30
2022-12-27T14:13:08.295Z,3.03
2022-12-27T14:18:22.872Z,3.10
2022-12-27T14:23:56.309Z,3.60
2022-12-27T14:29:36.411Z,3.67
2022-12-27T14:34:55.903Z,3.37
2022-12-27T14:40:34.815Z,3.57
2022-12-27T14:45:57.866Z,3.03
2022-12-27T14:57:17.208Z,3.53
2022-12-27T15:02:41.374Z,3.70
2022-12-27T15:07:57.355Z,4.10
2022-12-27T15:13:14.652Z,4.83
2022-12-27T15:18:17.101Z,5.47
2022-12-27T15:23:25.434Z,4.87
2022-12-27T15:28:43.243Z,4.33
2022-12-27T15:34:03.492Z,5.80
2022-12-27T15:39:26.676Z,4.47
2022-12-27T15:44:49.519Z,3.20
2022-12-27T15:50:20.176Z,4.57
2022-12-27T15:55:32.104Z,3.90
2022-12-27T16:00:34.993Z,3.63
2022-12-27T16:05:44.869Z,4.73
2022-12-27T16:10:49.770Z,4.40
2022-12-27T16:15:54.390Z,6.60
2022-12-27T16:21:03.803Z,5.17
2022-12-27T16:26:15.438Z,4.87
2022-12-27T16:31:23.739Z,3.70
2022-12-27T16:36:33.007Z,5.23
2022-12-27T16:41:56.862Z,4.47
2022-12-27T16:47:11.262Z,4.13
2022-12-27T16:52:14.982Z,4.07
2022-12-27T16:57:26.662Z,4.10
2022-12-27T17:02:38.968Z,3.90
2022-12-27T17:07:43.341Z,4.90
2022-12-27T17:12:52.770Z,3.40
2022-12-27T17:18:05.239Z,4.43
2022-12-27T17:23:08.113Z,3.50
2022-12-27T17:28:31.699Z,4.03
2022-12-27T17:33:56.227Z,4.23
2022-12-27T17:39:24.846Z,2.40
2022-12-27T17:44:39.891Z,3.63
2022-12-27T17:49:42.564Z,2.93
2022-12-27T17:55:03.800Z,4.20
2022-12-27T18:00:20.890Z,3.80
2022-12-27T18:05:28.891Z,4.03
2022-12-27T18:10:34.416Z,3.77
2022-12-27T18:15:43.104Z,4.77
2022-12-27T18:20:45.640Z,4.57
2022-12-27T18:25:48.171Z,4.07
2022-12-27T18:30:59.510Z,5.10
2022-12-27T18:36:05.945Z,5.53
2022-12-27T18:41:23.946Z,4.80
2022-12-27T18:46:35.187Z,7.30
2022-12-27T18:51:39.274Z,8.03
2022-12-27T18:56:42.640Z,8.83
2022-12-27T19:01:46.997Z,8.30
2022-12-27T19:07:15.835Z,8.43
2022-12-27T19:12:23.827Z,7.10
2022-12-27T19:17:32.970Z,6.83
2022-12-27T19:22:40.675Z,7.20
2022-12-27T19:28:00.489Z,7.10
2022-12-27T19:33:23.928Z,7.57
2022-12-27T19:38:32.868Z,7.10
2022-12-27T19:43:40.034Z,7.93
2022-12-27T19:48:43.846Z,7.70
2022-12-27T19:53:57.480Z,7.40
2022-12-27T19:59:00.394Z,6.77
2022-12-27T20:04:02.930Z,9.30
2022-12-27T20:09:08.417Z,7.63
2022-12-27T20:14:11.259Z,7.03
2022-12-27T20:19:16.345Z,6.87
2022-12-27T20:24:18.836Z,5.97
2022-12-27T20:29:21.873Z,7.23
2022-12-27T20:34:24.550Z,8.23
2022-12-27T20:39:27.169Z,5.10
2022-12-27T20:44:29.767Z,7.27
2022-12-27T20:49:32.295Z,7.77
2022-12-27T20:54:34.881Z,9.70
2022-12-27T20:59:37.291Z,9.57
2022-12-27T21:04:40.158Z,15.83
2022-12-27T21:09:42.692Z,10.90
2022-12-27T21:14:45.324Z,12.07
2022-12-27T21:19:47.918Z,11.47
2022-12-27T21:24:50.475Z,11.80
2022-12-27T21:29:53.065Z,12.27
2022-12-27T21:34:55.865Z,13.47
2022-12-27T21:39:58.398Z,8.77
2022-12-27T21:45:00.917Z,10.80
2022-12-27T21:50:03.392Z,8.30
2022-12-27T21:55:06.097Z,8.93
2022-12-27T22:00:09.504Z,8.67
2022-12-27T22:05:11.983Z,7.90
2022-12-27T22:10:14.522Z,8.60
2022-12-27T22:15:17.111Z,7.53
2022-12-27T22:20:19.562Z,8.80
2022-12-27T22:25:22.023Z,6.90
2022-12-27T22:30:24.437Z,8.13
2022-12-27T22:35:27.129Z,8.53
2022-12-27T22:40:40.775Z,9.97
2022-12-27T22:45:53.582Z,12.37
2022-12-27T22:50:56.574Z,11.47
2022-12-27T22:55:59.042Z,16.37
2022-12-27T23:01:01.528Z,15.80
2022-12-27T23:06:04.762Z,15.00
2022-12-27T23:11:23.476Z,17.33
2022-12-27T23:16:26.225Z,15.93
2022-12-27T23:21:28.831Z,17.53
2022-12-27T23:26:31.444Z,18.27
2022-12-27T23:31:34.759Z,20.47
2022-12-27T23:36:37.272Z,16.13
2022-12-27T23:41:39.812Z,13.93
2022-12-27T23:46:42.518Z,15.73
2022-12-27T23:51:45.146Z,15.73
2022-12-27T23:56:47.673Z,15.43
